sensor_id;sensor_type;location;lat;lon;timestamp;P1;durP1;ratioP1;P2;durP2;ratioP2
38901;SDS011;24661;53.566;9.910;2023-04-06T00:00:58;4.20;;;3.00;;
38901;SDS011;24661;53.566;9.910;2023-04-06T00:03:24;6.87;;;3.40;;
38901;SDS011;24661;53.566;9.910;2023-04-06T00:05:50;4.53;;;3.23;;
38901;SDS011;24661;53.566;9.910;2023-04-06T00:08:17;6.90;;;4.27;;
38901;SDS011;24661;53.566;9.910;2023-04-06T00:10:42;8.03;;;4.03;;
38901;SDS011;24661;53.566;9.910;2023-04-06T00:13:08;6.43;;;3.73;;
38901;SDS011;24661;53.566;9.910;2023-04-06T00:15:34;6.87;;;3.87;;
38901;SDS011;24661;53.566;9.910;2023-04-06T00:18:01;6.20;;;3.17;;
38901;SDS011;24661;53.566;9.910;2023-04-06T00:20:27;9.80;;;5.10;;
38901;SDS011;24661;53.566;9.910;2023-04-06T00:22:53;6.53;;;3.30;;
38901;SDS011;24661;53.566;9.910;2023-04-06T00:25:19;5.90;;;3.33;;
38901;SDS011;24661;53.566;9.910;2023-04-06T00:27:45;8.17;;;3.30;;
38901;SDS011;24661;53.566;9.910;2023-04-06T00:30:11;8.53;;;4.00;;
38901;SDS011;24661;53.566;9.910;2023-04-06T00:32:36;8.00;;;3.37;;
38901;SDS011;24661;53.566;9.910;2023-04-06T00:35:05;5.07;;;3.40;;
38901;SDS011;24661;53.566;9.910;2023-04-06T00:37:32;7.70;;;4.00;;
38901;SDS011;24661;53.566;9.910;2023-04-06T00:39:57;9.27;;;3.27;;
38901;SDS011;24661;53.566;9.910;2023-04-06T00:42:23;5.57;;;3.67;;
38901;SDS011;24661;53.566;9.910;2023-04-06T00:44:56;6.30;;;3.80;;
38901;SDS011;24661;53.566;9.910;2023-04-06T00:47:23;7.33;;;3.23;;
38901;SDS011;24661;53.566;9.910;2023-04-06T00:49:53;7.73;;;3.67;;
38901;SDS011;24661;53.566;9.910;2023-04-06T00:52:20;8.20;;;3.83;;
38901;SDS011;24661;53.566;9.910;2023-04-06T00:54:45;8.03;;;3.20;;
38901;SDS011;24661;53.566;9.910;2023-04-06T00:57:12;7.47;;;3.50;;
38901;SDS011;24661;53.566;9.910;2023-04-06T00:59:38;7.07;;;3.30;;
38901;SDS011;24661;53.566;9.910;2023-04-06T01:02:04;7.13;;;4.00;;
38901;SDS011;24661;53.566;9.910;2023-04-06T01:04:31;4.77;;;3.33;;
38901;SDS011;24661;53.566;9.910;2023-04-06T01:06:57;5.63;;;3.73;;
38901;SDS011;24661;53.566;9.910;2023-04-06T01:09:23;6.90;;;3.47;;
38901;SDS011;24661;53.566;9.910;2023-04-06T01:11:48;5.80;;;4.00;;
38901;SDS011;24661;53.566;9.910;2023-04-06T01:14:14;11.87;;;4.07;;
38901;SDS011;24661;53.566;9.910;2023-04-06T01:16:40;8.53;;;4.00;;
38901;SDS011;24661;53.566;9.910;2023-04-06T01:19:13;6.87;;;4.20;;
38901;SDS011;24661;53.566;9.910;2023-04-06T01:21:39;5.33;;;3.73;;
38901;SDS011;24661;53.566;9.910;2023-04-06T01:24:05;10.10;;;3.37;;
38901;SDS011;24661;53.566;9.910;2023-04-06T01:26:32;7.73;;;3.50;;
38901;SDS011;24661;53.566;9.910;2023-04-06T01:28:59;8.13;;;3.73;;
38901;SDS011;24661;53.566;9.910;2023-04-06T01:31:25;6.37;;;3.50;;
38901;SDS011;24661;53.566;9.910;2023-04-06T01:33:51;4.93;;;2.53;;
38901;SDS011;24661;53.566;9.910;2023-04-06T01:36:17;6.47;;;3.63;;
38901;SDS011;24661;53.566;9.910;2023-04-06T01:38:43;5.03;;;3.20;;
38901;SDS011;24661;53.566;9.910;2023-04-06T01:41:09;6.53;;;3.80;;
38901;SDS011;24661;53.566;9.910;2023-04-06T01:43:35;5.93;;;3.50;;
38901;SDS011;24661;53.566;9.910;2023-04-06T01:46:01;5.13;;;3.47;;
38901;SDS011;24661;53.566;9.910;2023-04-06T01:48:27;6.40;;;3.87;;
38901;SDS011;24661;53.566;9.910;2023-04-06T01:50:53;5.47;;;3.27;;
38901;SDS011;24661;53.566;9.910;2023-04-06T01:53:19;7.57;;;3.97;;
38901;SDS011;24661;53.566;9.910;2023-04-06T01:55:45;9.17;;;3.93;;
38901;SDS011;24661;53.566;9.910;2023-04-06T01:58:11;8.47;;;3.53;;
38901;SDS011;24661;53.566;9.910;2023-04-06T02:00:37;4.43;;;3.20;;
38901;SDS011;24661;53.566;9.910;2023-04-06T02:03:03;5.47;;;3.90;;
38901;SDS011;24661;53.566;9.910;2023-04-06T02:05:30;5.30;;;3.57;;
38901;SDS011;24661;53.566;9.910;2023-04-06T02:07:58;4.60;;;3.10;;
38901;SDS011;24661;53.566;9.910;2023-04-06T02:10:23;8.50;;;3.50;;
38901;SDS011;24661;53.566;9.910;2023-04-06T02:12:49;5.73;;;4.13;;
38901;SDS011;24661;53.566;9.910;2023-04-06T02:15:15;8.67;;;4.43;;
38901;SDS011;24661;53.566;9.910;2023-04-06T02:17:41;5.20;;;3.73;;
38901;SDS011;24661;53.566;9.910;2023-04-06T02:20:07;7.03;;;3.67;;
38901;SDS011;24661;53.566;9.910;2023-04-06T02:22:34;9.33;;;4.03;;
38901;SDS011;24661;53.566;9.910;2023-04-06T02:25:00;8.03;;;4.20;;
38901;SDS011;24661;53.566;9.910;2023-04-06T02:27:26;5.93;;;3.53;;
38901;SDS011;24661;53.566;9.910;2023-04-06T02:29:52;5.70;;;3.63;;
38901;SDS011;24661;53.566;9.910;2023-04-06T02:32:18;6.63;;;3.90;;
38901;SDS011;24661;53.566;9.910;2023-04-06T02:34:44;7.33;;;3.80;;
38901;SDS011;24661;53.566;9.910;2023-04-06T02:37:10;6.43;;;4.30;;
38901;SDS011;24661;53.566;9.910;2023-04-06T02:39:35;10.57;;;4.20;;
38901;SDS011;24661;53.566;9.910;2023-04-06T02:42:01;7.43;;;4.40;;
38901;SDS011;24661;53.566;9.910;2023-04-06T02:44:27;11.83;;;4.77;;
38901;SDS011;24661;53.566;9.910;2023-04-06T02:46:52;5.83;;;3.60;;
38901;SDS011;24661;53.566;9.910;2023-04-06T02:49:18;6.43;;;3.80;;
38901;SDS011;24661;53.566;9.910;2023-04-06T02:51:44;6.57;;;4.13;;
38901;SDS011;24661;53.566;9.910;2023-04-06T02:54:10;7.63;;;4.63;;
38901;SDS011;24661;53.566;9.910;2023-04-06T02:56:35;7.37;;;4.17;;
38901;SDS011;24661;53.566;9.910;2023-04-06T02:59:01;9.20;;;4.77;;
38901;SDS011;24661;53.566;9.910;2023-04-06T03:01:27;9.23;;;4.57;;
38901;SDS011;24661;53.566;9.910;2023-04-06T03:03:52;5.50;;;4.27;;
38901;SDS011;24661;53.566;9.910;2023-04-06T03:06:18;6.50;;;4.37;;
38901;SDS011;24661;53.566;9.910;2023-04-06T03:08:44;8.20;;;4.20;;
38901;SDS011;24661;53.566;9.910;2023-04-06T03:11:10;6.07;;;4.83;;
38901;SDS011;24661;53.566;9.910;2023-04-06T03:13:36;6.07;;;4.53;;
38901;SDS011;24661;53.566;9.910;2023-04-06T03:16:04;7.13;;;4.93;;
38901;SDS011;24661;53.566;9.910;2023-04-06T03:18:30;8.23;;;4.67;;
38901;SDS011;24661;53.566;9.910;2023-04-06T03:20:55;8.37;;;5.07;;
38901;SDS011;24661;53.566;9.910;2023-04-06T03:23:21;8.13;;;4.57;;
38901;SDS011;24661;53.566;9.910;2023-04-06T03:25:47;8.97;;;5.23;;
38901;SDS011;24661;53.566;9.910;2023-04-06T03:28:12;9.97;;;5.07;;
38901;SDS011;24661;53.566;9.910;2023-04-06T03:30:38;9.67;;;5.50;;
38901;SDS011;24661;53.566;9.910;2023-04-06T03:33:04;9.37;;;4.87;;
38901;SDS011;24661;53.566;9.910;2023-04-06T03:35:30;7.63;;;4.73;;
38901;SDS011;24661;53.566;9.910;2023-04-06T03:37:55;10.53;;;5.60;;
38901;SDS011;24661;53.566;9.910;2023-04-06T03:40:21;9.57;;;6.27;;
38901;SDS011;24661;53.566;9.910;2023-04-06T03:42:47;6.70;;;4.63;;
38901;SDS011;24661;53.566;9.910;2023-04-06T03:45:13;11.43;;;5.53;;
38901;SDS011;24661;53.566;9.910;2023-04-06T03:47:39;7.40;;;4.77;;
38901;SDS011;24661;53.566;9.910;2023-04-06T03:50:05;5.73;;;4.80;;
38901;SDS011;24661;53.566;9.910;2023-04-06T03:52:31;9.60;;;5.77;;
38901;SDS011;24661;53.566;9.910;2023-04-06T03:54:57;7.70;;;5.27;;
38901;SDS011;24661;53.566;9.910;2023-04-06T03:57:23;9.40;;;6.17;;
38901;SDS011;24661;53.566;9.910;2023-04-06T03:59:48;9.23;;;5.07;;
38901;SDS011;24661;53.566;9.910;2023-04-06T04:02:14;6.90;;;4.90;;
38901;SDS011;24661;53.566;9.910;2023-04-06T04:04:40;9.87;;;5.90;;
38901;SDS011;24661;53.566;9.910;2023-04-06T04:07:06;11.13;;;5.20;;
38901;SDS011;24661;53.566;9.910;2023-04-06T04:09:31;9.67;;;6.40;;
38901;SDS011;24661;53.566;9.910;2023-04-06T04:11:57;10.60;;;6.13;;
38901;SDS011;24661;53.566;9.910;2023-04-06T04:14:23;11.03;;;5.57;;
38901;SDS011;24661;53.566;9.910;2023-04-06T04:16:49;12.93;;;5.77;;
38901;SDS011;24661;53.566;9.910;2023-04-06T04:19:14;12.07;;;5.80;;
38901;SDS011;24661;53.566;9.910;2023-04-06T04:21:44;9.47;;;5.50;;
38901;SDS011;24661;53.566;9.910;2023-04-06T04:24:10;11.73;;;6.57;;
38901;SDS011;24661;53.566;9.910;2023-04-06T04:26:36;9.50;;;6.27;;
38901;SDS011;24661;53.566;9.910;2023-04-06T04:29:03;15.07;;;6.30;;
38901;SDS011;24661;53.566;9.910;2023-04-06T04:31:30;9.80;;;6.10;;
38901;SDS011;24661;53.566;9.910;2023-04-06T04:33:56;8.87;;;5.93;;
38901;SDS011;24661;53.566;9.910;2023-04-06T04:36:23;12.10;;;6.83;;
38901;SDS011;24661;53.566;9.910;2023-04-06T04:38:51;11.47;;;6.57;;
38901;SDS011;24661;53.566;9.910;2023-04-06T04:41:17;11.53;;;6.57;;
38901;SDS011;24661;53.566;9.910;2023-04-06T04:43:43;13.03;;;6.73;;
38901;SDS011;24661;53.566;9.910;2023-04-06T04:46:09;12.60;;;6.57;;
38901;SDS011;24661;53.566;9.910;2023-04-06T04:48:35;11.77;;;6.80;;
38901;SDS011;24661;53.566;9.910;2023-04-06T04:51:01;12.90;;;6.83;;
38901;SDS011;24661;53.566;9.910;2023-04-06T04:53:27;23.83;;;6.97;;
38901;SDS011;24661;53.566;9.910;2023-04-06T04:55:52;15.43;;;7.40;;
38901;SDS011;24661;53.566;9.910;2023-04-06T04:58:18;15.37;;;9.67;;
38901;SDS011;24661;53.566;9.910;2023-04-06T05:00:45;9.43;;;6.80;;
38901;SDS011;24661;53.566;9.910;2023-04-06T05:03:18;12.67;;;6.93;;
38901;SDS011;24661;53.566;9.910;2023-04-06T05:05:49;12.80;;;8.10;;
38901;SDS011;24661;53.566;9.910;2023-04-06T05:08:15;15.77;;;6.93;;
38901;SDS011;24661;53.566;9.910;2023-04-06T05:10:41;12.53;;;7.97;;
38901;SDS011;24661;53.566;9.910;2023-04-06T05:13:07;11.83;;;7.20;;
38901;SDS011;24661;53.566;9.910;2023-04-06T05:15:33;10.73;;;7.53;;
38901;SDS011;24661;53.566;9.910;2023-04-06T05:18:05;11.90;;;7.93;;
38901;SDS011;24661;53.566;9.910;2023-04-06T05:20:32;14.60;;;7.90;;
38901;SDS011;24661;53.566;9.910;2023-04-06T05:22:59;14.77;;;7.93;;
38901;SDS011;24661;53.566;9.910;2023-04-06T05:25:25;13.00;;;7.60;;
38901;SDS011;24661;53.566;9.910;2023-04-06T05:27:51;12.47;;;8.10;;
38901;SDS011;24661;53.566;9.910;2023-04-06T05:30:17;11.77;;;7.53;;
38901;SDS011;24661;53.566;9.910;2023-04-06T05:32:43;14.80;;;8.73;;
38901;SDS011;24661;53.566;9.910;2023-04-06T05:35:10;15.23;;;7.40;;
38901;SDS011;24661;53.566;9.910;2023-04-06T05:37:36;11.37;;;8.53;;
38901;SDS011;24661;53.566;9.910;2023-04-06T05:40:02;12.63;;;8.13;;
38901;SDS011;24661;53.566;9.910;2023-04-06T05:42:38;19.00;;;9.23;;
38901;SDS011;24661;53.566;9.910;2023-04-06T05:45:05;17.27;;;8.93;;
38901;SDS011;24661;53.566;9.910;2023-04-06T05:47:31;12.23;;;8.30;;
38901;SDS011;24661;53.566;9.910;2023-04-06T05:49:57;13.30;;;7.67;;
38901;SDS011;24661;53.566;9.910;2023-04-06T05:52:23;13.27;;;8.27;;
38901;SDS011;24661;53.566;9.910;2023-04-06T05:54:49;11.97;;;8.57;;
38901;SDS011;24661;53.566;9.910;2023-04-06T05:57:15;19.23;;;8.07;;
38901;SDS011;24661;53.566;9.910;2023-04-06T05:59:42;15.33;;;7.93;;
38901;SDS011;24661;53.566;9.910;2023-04-06T06:02:07;13.37;;;8.40;;
38901;SDS011;24661;53.566;9.910;2023-04-06T06:04:33;16.57;;;8.17;;
38901;SDS011;24661;53.566;9.910;2023-04-06T06:06:59;14.07;;;8.10;;
38901;SDS011;24661;53.566;9.910;2023-04-06T06:09:25;14.17;;;7.57;;
38901;SDS011;24661;53.566;9.910;2023-04-06T06:11:51;15.87;;;8.87;;
38901;SDS011;24661;53.566;9.910;2023-04-06T06:14:17;11.97;;;7.40;;
38901;SDS011;24661;53.566;9.910;2023-04-06T06:16:43;16.33;;;8.33;;
38901;SDS011;24661;53.566;9.910;2023-04-06T06:19:09;13.53;;;8.13;;
38901;SDS011;24661;53.566;9.910;2023-04-06T06:21:35;19.87;;;8.57;;
38901;SDS011;24661;53.566;9.910;2023-04-06T06:24:01;14.07;;;8.23;;
38901;SDS011;24661;53.566;9.910;2023-04-06T06:26:27;13.57;;;8.13;;
38901;SDS011;24661;53.566;9.910;2023-04-06T06:28:52;11.13;;;7.97;;
38901;SDS011;24661;53.566;9.910;2023-04-06T06:31:18;11.30;;;7.37;;
38901;SDS011;24661;53.566;9.910;2023-04-06T06:33:47;11.40;;;8.00;;
38901;SDS011;24661;53.566;9.910;2023-04-06T06:36:15;12.00;;;7.47;;
38901;SDS011;24661;53.566;9.910;2023-04-06T06:38:43;16.93;;;7.33;;
38901;SDS011;24661;53.566;9.910;2023-04-06T06:41:09;12.93;;;7.03;;
38901;SDS011;24661;53.566;9.910;2023-04-06T06:43:35;12.87;;;7.57;;
38901;SDS011;24661;53.566;9.910;2023-04-06T06:46:01;19.67;;;8.30;;
38901;SDS011;24661;53.566;9.910;2023-04-06T06:48:27;12.60;;;7.73;;
38901;SDS011;24661;53.566;9.910;2023-04-06T06:50:53;17.77;;;7.10;;
38901;SDS011;24661;53.566;9.910;2023-04-06T06:53:19;10.63;;;7.20;;
38901;SDS011;24661;53.566;9.910;2023-04-06T06:55:45;15.00;;;7.63;;
38901;SDS011;24661;53.566;9.910;2023-04-06T06:58:11;16.97;;;7.30;;
38901;SDS011;24661;53.566;9.910;2023-04-06T07:00:37;13.50;;;6.80;;
38901;SDS011;24661;53.566;9.910;2023-04-06T07:03:03;10.43;;;5.30;;
38901;SDS011;24661;53.566;9.910;2023-04-06T07:05:29;11.00;;;6.47;;
38901;SDS011;24661;53.566;9.910;2023-04-06T07:07:55;11.70;;;5.83;;
38901;SDS011;24661;53.566;9.910;2023-04-06T07:10:21;12.10;;;5.23;;
38901;SDS011;24661;53.566;9.910;2023-04-06T07:12:47;7.23;;;5.10;;
38901;SDS011;24661;53.566;9.910;2023-04-06T07:15:13;8.00;;;5.27;;
38901;SDS011;24661;53.566;9.910;2023-04-06T07:17:39;8.07;;;4.80;;
38901;SDS011;24661;53.566;9.910;2023-04-06T07:20:06;5.87;;;4.50;;
38901;SDS011;24661;53.566;9.910;2023-04-06T07:22:32;9.10;;;5.27;;
38901;SDS011;24661;53.566;9.910;2023-04-06T07:24:58;7.63;;;5.10;;
38901;SDS011;24661;53.566;9.910;2023-04-06T07:27:24;11.17;;;5.27;;
38901;SDS011;24661;53.566;9.910;2023-04-06T07:29:49;8.30;;;4.93;;
38901;SDS011;24661;53.566;9.910;2023-04-06T07:32:15;10.77;;;5.60;;
38901;SDS011;24661;53.566;9.910;2023-04-06T07:34:41;12.80;;;5.20;;
38901;SDS011;24661;53.566;9.910;2023-04-06T07:37:06;7.33;;;5.10;;
38901;SDS011;24661;53.566;9.910;2023-04-06T07:39:32;10.53;;;5.53;;
38901;SDS011;24661;53.566;9.910;2023-04-06T07:41:58;6.77;;;4.83;;
38901;SDS011;24661;53.566;9.910;2023-04-06T07:44:24;7.87;;;4.90;;
38901;SDS011;24661;53.566;9.910;2023-04-06T07:46:50;9.87;;;5.13;;
38901;SDS011;24661;53.566;9.910;2023-04-06T07:49:16;11.03;;;4.87;;
38901;SDS011;24661;53.566;9.910;2023-04-06T07:51:41;10.60;;;4.90;;
38901;SDS011;24661;53.566;9.910;2023-04-06T07:54:07;13.57;;;5.77;;
38901;SDS011;24661;53.566;9.910;2023-04-06T07:56:33;10.60;;;6.00;;
38901;SDS011;24661;53.566;9.910;2023-04-06T07:58:58;8.77;;;4.47;;
38901;SDS011;24661;53.566;9.910;2023-04-06T08:01:24;5.23;;;4.23;;
38901;SDS011;24661;53.566;9.910;2023-04-06T08:03:50;9.53;;;5.07;;
38901;SDS011;24661;53.566;9.910;2023-04-06T08:06:16;7.00;;;4.97;;
38901;SDS011;24661;53.566;9.910;2023-04-06T08:08:42;7.60;;;4.60;;
38901;SDS011;24661;53.566;9.910;2023-04-06T08:11:08;8.17;;;4.93;;
38901;SDS011;24661;53.566;9.910;2023-04-06T08:13:34;10.73;;;4.83;;
38901;SDS011;24661;53.566;9.910;2023-04-06T08:16:00;6.17;;;4.33;;
38901;SDS011;24661;53.566;9.910;2023-04-06T08:18:27;8.70;;;4.90;;
38901;SDS011;24661;53.566;9.910;2023-04-06T08:20:54;7.87;;;5.13;;
38901;SDS011;24661;53.566;9.910;2023-04-06T08:23:20;7.57;;;4.40;;
38901;SDS011;24661;53.566;9.910;2023-04-06T08:25:45;9.33;;;4.93;;
38901;SDS011;24661;53.566;9.910;2023-04-06T08:28:11;14.13;;;5.27;;
38901;SDS011;24661;53.566;9.910;2023-04-06T08:30:39;11.67;;;5.93;;
38901;SDS011;24661;53.566;9.910;2023-04-06T08:33:05;11.10;;;5.77;;
38901;SDS011;24661;53.566;9.910;2023-04-06T08:35:31;9.00;;;5.70;;
38901;SDS011;24661;53.566;9.910;2023-04-06T08:37:57;8.73;;;5.73;;
38901;SDS011;24661;53.566;9.910;2023-04-06T08:40:23;9.17;;;5.10;;
38901;SDS011;24661;53.566;9.910;2023-04-06T08:42:54;8.53;;;5.27;;
38901;SDS011;24661;53.566;9.910;2023-04-06T08:45:21;7.67;;;5.03;;
38901;SDS011;24661;53.566;9.910;2023-04-06T08:47:49;9.93;;;5.70;;
38901;SDS011;24661;53.566;9.910;2023-04-06T08:50:16;10.10;;;4.70;;
38901;SDS011;24661;53.566;9.910;2023-04-06T08:52:43;6.77;;;5.17;;
38901;SDS011;24661;53.566;9.910;2023-04-06T08:55:11;9.23;;;5.47;;
38901;SDS011;24661;53.566;9.910;2023-04-06T08:57:37;6.23;;;4.57;;
38901;SDS011;24661;53.566;9.910;2023-04-06T09:00:04;6.97;;;4.83;;
38901;SDS011;24661;53.566;9.910;2023-04-06T09:02:31;10.27;;;4.83;;
38901;SDS011;24661;53.566;9.910;2023-04-06T09:04:57;7.60;;;5.30;;
38901;SDS011;24661;53.566;9.910;2023-04-06T09:07:23;6.23;;;4.60;;
38901;SDS011;24661;53.566;9.910;2023-04-06T09:09:49;5.30;;;4.60;;
38901;SDS011;24661;53.566;9.910;2023-04-06T09:12:29;13.83;;;4.70;;
38901;SDS011;24661;53.566;9.910;2023-04-06T09:14:56;5.17;;;3.73;;
38901;SDS011;24661;53.566;9.910;2023-04-06T09:17:25;7.63;;;4.10;;
38901;SDS011;24661;53.566;9.910;2023-04-06T09:19:55;9.87;;;4.23;;
38901;SDS011;24661;53.566;9.910;2023-04-06T09:22:21;8.67;;;5.07;;
38901;SDS011;24661;53.566;9.910;2023-04-06T09:24:50;5.67;;;4.13;;
38901;SDS011;24661;53.566;9.910;2023-04-06T09:27:17;10.80;;;4.90;;
38901;SDS011;24661;53.566;9.910;2023-04-06T09:30:02;5.30;;;3.70;;
38901;SDS011;24661;53.566;9.910;2023-04-06T09:32:45;5.43;;;3.93;;
38901;SDS011;24661;53.566;9.910;2023-04-06T09:35:12;6.57;;;3.83;;
38901;SDS011;24661;53.566;9.910;2023-04-06T09:37:38;6.73;;;4.50;;
38901;SDS011;24661;53.566;9.910;2023-04-06T09:40:04;7.27;;;4.50;;
38901;SDS011;24661;53.566;9.910;2023-04-06T09:42:31;8.77;;;5.40;;
38901;SDS011;24661;53.566;9.910;2023-04-06T09:44:57;4.77;;;3.37;;
38901;SDS011;24661;53.566;9.910;2023-04-06T09:47:23;7.57;;;3.53;;
38901;SDS011;24661;53.566;9.910;2023-04-06T09:49:50;8.20;;;4.40;;
38901;SDS011;24661;53.566;9.910;2023-04-06T09:52:26;6.43;;;3.93;;
38901;SDS011;24661;53.566;9.910;2023-04-06T09:55:05;6.73;;;3.97;;
38901;SDS011;24661;53.566;9.910;2023-04-06T10:00:13;6.47;;;4.03;;
38901;SDS011;24661;53.566;9.910;2023-04-06T10:02:50;7.07;;;3.50;;
38901;SDS011;24661;53.566;9.910;2023-04-06T10:05:43;5.40;;;3.63;;
38901;SDS011;24661;53.566;9.910;2023-04-06T10:08:17;8.17;;;3.47;;
38901;SDS011;24661;53.566;9.910;2023-04-06T10:10:45;4.67;;;3.20;;
38901;SDS011;24661;53.566;9.910;2023-04-06T10:13:12;5.23;;;3.30;;
38901;SDS011;24661;53.566;9.910;2023-04-06T10:15:38;5.70;;;3.40;;
38901;SDS011;24661;53.566;9.910;2023-04-06T10:18:05;5.63;;;3.83;;
38901;SDS011;24661;53.566;9.910;2023-04-06T10:23:10;4.73;;;3.07;;
38901;SDS011;24661;53.566;9.910;2023-04-06T10:25:51;4.07;;;3.17;;
38901;SDS011;24661;53.566;9.910;2023-04-06T10:28:19;7.00;;;3.20;;
38901;SDS011;24661;53.566;9.910;2023-04-06T10:30:45;7.77;;;3.63;;
38901;SDS011;24661;53.566;9.910;2023-04-06T10:35:40;5.90;;;3.57;;
38901;SDS011;24661;53.566;9.910;2023-04-06T10:38:06;5.23;;;3.60;;
38901;SDS011;24661;53.566;9.910;2023-04-06T10:40:35;7.07;;;3.40;;
38901;SDS011;24661;53.566;9.910;2023-04-06T10:45:38;6.03;;;3.93;;
38901;SDS011;24661;53.566;9.910;2023-04-06T10:50:44;6.03;;;3.30;;
38901;SDS011;24661;53.566;9.910;2023-04-06T10:53:25;6.57;;;3.70;;
38901;SDS011;24661;53.566;9.910;2023-04-06T10:55:56;4.20;;;3.50;;
38901;SDS011;24661;53.566;9.910;2023-04-06T10:58:25;9.17;;;4.00;;
38901;SDS011;24661;53.566;9.910;2023-04-06T11:00:52;9.77;;;4.60;;
38901;SDS011;24661;53.566;9.910;2023-04-06T11:03:20;5.10;;;3.63;;
38901;SDS011;24661;53.566;9.910;2023-04-06T11:05:46;6.77;;;4.60;;
38901;SDS011;24661;53.566;9.910;2023-04-06T11:08:25;6.33;;;4.13;;
38901;SDS011;24661;53.566;9.910;2023-04-06T11:11:04;5.80;;;3.87;;
38901;SDS011;24661;53.566;9.910;2023-04-06T11:13:56;6.37;;;4.60;;
38901;SDS011;24661;53.566;9.910;2023-04-06T11:16:24;8.20;;;5.13;;
38901;SDS011;24661;53.566;9.910;2023-04-06T11:24:31;8.87;;;4.70;;
38901;SDS011;24661;53.566;9.910;2023-04-06T11:26:57;7.87;;;5.27;;
38901;SDS011;24661;53.566;9.910;2023-04-06T11:29:26;6.27;;;4.00;;
38901;SDS011;24661;53.566;9.910;2023-04-06T11:31:57;7.83;;;5.40;;
38901;SDS011;24661;53.566;9.910;2023-04-06T11:34:25;9.20;;;5.13;;
38901;SDS011;24661;53.566;9.910;2023-04-06T11:37:00;6.53;;;5.00;;
38901;SDS011;24661;53.566;9.910;2023-04-06T11:39:29;7.67;;;5.67;;
38901;SDS011;24661;53.566;9.910;2023-04-06T11:41:58;8.20;;;5.80;;
38901;SDS011;24661;53.566;9.910;2023-04-06T11:45:00;9.47;;;6.17;;
38901;SDS011;24661;53.566;9.910;2023-04-06T11:47:20;9.13;;;5.47;;
38901;SDS011;24661;53.566;9.910;2023-04-06T11:50:05;9.17;;;5.87;;
38901;SDS011;24661;53.566;9.910;2023-04-06T11:52:35;8.70;;;5.80;;
38901;SDS011;24661;53.566;9.910;2023-04-06T11:55:10;8.23;;;5.70;;
38901;SDS011;24661;53.566;9.910;2023-04-06T11:57:37;8.83;;;4.80;;
38901;SDS011;24661;53.566;9.910;2023-04-06T12:00:03;5.83;;;5.13;;
38901;SDS011;24661;53.566;9.910;2023-04-06T12:02:29;11.33;;;5.33;;
38901;SDS011;24661;53.566;9.910;2023-04-06T12:04:57;12.40;;;5.73;;
38901;SDS011;24661;53.566;9.910;2023-04-06T12:07:23;8.10;;;4.90;;
38901;SDS011;24661;53.566;9.910;2023-04-06T12:09:49;8.07;;;5.67;;
38901;SDS011;24661;53.566;9.910;2023-04-06T12:12:15;8.67;;;5.43;;
38901;SDS011;24661;53.566;9.910;2023-04-06T12:14:40;8.17;;;5.90;;
38901;SDS011;24661;53.566;9.910;2023-04-06T12:17:06;8.87;;;5.93;;
38901;SDS011;24661;53.566;9.910;2023-04-06T12:19:32;11.80;;;5.43;;
38901;SDS011;24661;53.566;9.910;2023-04-06T12:21:58;8.77;;;5.77;;
38901;SDS011;24661;53.566;9.910;2023-04-06T12:24:23;6.50;;;5.43;;
38901;SDS011;24661;53.566;9.910;2023-04-06T12:26:49;10.23;;;6.60;;
38901;SDS011;24661;53.566;9.910;2023-04-06T12:29:15;7.53;;;5.67;;
38901;SDS011;24661;53.566;9.910;2023-04-06T12:31:41;9.90;;;6.03;;
38901;SDS011;24661;53.566;9.910;2023-04-06T12:34:09;8.23;;;5.53;;
38901;SDS011;24661;53.566;9.910;2023-04-06T12:36:36;9.93;;;5.50;;
38901;SDS011;24661;53.566;9.910;2023-04-06T12:39:03;11.80;;;6.73;;
38901;SDS011;24661;53.566;9.910;2023-04-06T12:41:29;9.13;;;5.97;;
38901;SDS011;24661;53.566;9.910;2023-04-06T12:43:55;8.23;;;6.47;;
38901;SDS011;24661;53.566;9.910;2023-04-06T12:46:21;8.73;;;6.10;;
38901;SDS011;24661;53.566;9.910;2023-04-06T12:48:48;8.50;;;5.87;;
38901;SDS011;24661;53.566;9.910;2023-04-06T12:51:13;12.60;;;7.00;;
38901;SDS011;24661;53.566;9.910;2023-04-06T12:53:39;10.50;;;5.97;;
38901;SDS011;24661;53.566;9.910;2023-04-06T12:56:16;9.27;;;6.00;;
38901;SDS011;24661;53.566;9.910;2023-04-06T12:58:43;9.17;;;5.60;;
38901;SDS011;24661;53.566;9.910;2023-04-06T13:01:10;9.30;;;6.63;;
38901;SDS011;24661;53.566;9.910;2023-04-06T13:03:39;9.17;;;6.70;;
38901;SDS011;24661;53.566;9.910;2023-04-06T13:06:06;10.13;;;6.70;;
38901;SDS011;24661;53.566;9.910;2023-04-06T13:08:33;10.37;;;6.33;;
38901;SDS011;24661;53.566;9.910;2023-04-06T13:11:00;8.60;;;5.93;;
38901;SDS011;24661;53.566;9.910;2023-04-06T13:13:26;9.03;;;6.70;;
38901;SDS011;24661;53.566;9.910;2023-04-06T13:15:53;11.33;;;6.80;;
38901;SDS011;24661;53.566;9.910;2023-04-06T13:18:23;10.00;;;7.67;;
38901;SDS011;24661;53.566;9.910;2023-04-06T13:20:49;7.37;;;5.83;;
38901;SDS011;24661;53.566;9.910;2023-04-06T13:23:15;9.17;;;6.37;;
38901;SDS011;24661;53.566;9.910;2023-04-06T13:25:41;9.30;;;7.00;;
38901;SDS011;24661;53.566;9.910;2023-04-06T13:28:07;7.63;;;6.50;;
38901;SDS011;24661;53.566;9.910;2023-04-06T13:30:33;8.40;;;6.20;;
38901;SDS011;24661;53.566;9.910;2023-04-06T13:32:59;10.07;;;7.20;;
38901;SDS011;24661;53.566;9.910;2023-04-06T13:35:24;9.30;;;6.77;;
38901;SDS011;24661;53.566;9.910;2023-04-06T13:37:50;8.97;;;6.03;;
38901;SDS011;24661;53.566;9.910;2023-04-06T13:40:17;8.63;;;7.23;;
38901;SDS011;24661;53.566;9.910;2023-04-06T13:42:44;6.13;;;5.53;;
38901;SDS011;24661;53.566;9.910;2023-04-06T13:45:11;9.33;;;5.90;;
38901;SDS011;24661;53.566;9.910;2023-04-06T13:47:37;7.17;;;6.20;;
38901;SDS011;24661;53.566;9.910;2023-04-06T13:50:04;9.80;;;6.17;;
38901;SDS011;24661;53.566;9.910;2023-04-06T13:52:30;8.43;;;6.20;;
38901;SDS011;24661;53.566;9.910;2023-04-06T13:54:56;6.47;;;5.53;;
38901;SDS011;24661;53.566;9.910;2023-04-06T13:57:21;7.03;;;5.37;;
38901;SDS011;24661;53.566;9.910;2023-04-06T13:59:47;6.17;;;4.93;;
38901;SDS011;24661;53.566;9.910;2023-04-06T14:02:14;8.07;;;5.63;;
38901;SDS011;24661;53.566;9.910;2023-04-06T14:04:40;8.60;;;5.27;;
38901;SDS011;24661;53.566;9.910;2023-04-06T14:07:06;6.77;;;5.37;;
38901;SDS011;24661;53.566;9.910;2023-04-06T14:09:32;7.70;;;5.33;;
38901;SDS011;24661;53.566;9.910;2023-04-06T14:11:58;6.10;;;5.50;;
38901;SDS011;24661;53.566;9.910;2023-04-06T14:14:24;10.43;;;6.53;;
38901;SDS011;24661;53.566;9.910;2023-04-06T14:16:51;8.80;;;6.60;;
38901;SDS011;24661;53.566;9.910;2023-04-06T14:19:17;7.03;;;5.33;;
38901;SDS011;24661;53.566;9.910;2023-04-06T14:21:47;7.43;;;5.77;;
38901;SDS011;24661;53.566;9.910;2023-04-06T14:24:14;7.43;;;5.07;;
38901;SDS011;24661;53.566;9.910;2023-04-06T14:26:40;6.83;;;5.77;;
38901;SDS011;24661;53.566;9.910;2023-04-06T14:29:09;6.37;;;5.50;;
38901;SDS011;24661;53.566;9.910;2023-04-06T14:31:35;9.80;;;6.07;;
38901;SDS011;24661;53.566;9.910;2023-04-06T14:34:01;9.37;;;5.93;;
38901;SDS011;24661;53.566;9.910;2023-04-06T14:36:28;7.50;;;5.83;;
38901;SDS011;24661;53.566;9.910;2023-04-06T14:39:01;9.10;;;6.00;;
38901;SDS011;24661;53.566;9.910;2023-04-06T14:41:30;8.30;;;6.23;;
38901;SDS011;24661;53.566;9.910;2023-04-06T14:43:58;7.70;;;6.43;;
38901;SDS011;24661;53.566;9.910;2023-04-06T14:46:24;9.60;;;5.80;;
38901;SDS011;24661;53.566;9.910;2023-04-06T14:48:52;8.87;;;6.90;;
38901;SDS011;24661;53.566;9.910;2023-04-06T14:51:20;8.67;;;7.10;;
38901;SDS011;24661;53.566;9.910;2023-04-06T14:53:45;10.77;;;7.00;;
38901;SDS011;24661;53.566;9.910;2023-04-06T14:56:11;9.40;;;5.97;;
38901;SDS011;24661;53.566;9.910;2023-04-06T14:58:37;11.53;;;7.13;;
38901;SDS011;24661;53.566;9.910;2023-04-06T15:01:02;9.13;;;6.50;;